ENBRENAL

Guest
Details From ENBR - Bergen Lufthavn Flesland
To ENAL - Alesund lufthavn - Vigra
Flight Number -
Tags generated
Created
Modified
Stats Distance 139 nm / 257 km
Max Altitude 7,400 ft / 2,256 m
Waypoints 3
Social Downloads 0
Likes 0
Share VATSIM

Download

Looking for another format? Having issues loading an existing format? Contact us
Advertisement - Login to hide

Notes

Basic altitude profile: - Ascent Rate: 1200ft/min - Ascent Speed: 140kts - Cruise Altitude: 15000ft - Cruise Speed: 200kts - Descent Rate: 1200ft/min - Descent Speed: 180kts Options: - Use NATs: yes - Use PACOTS: yes - Use low airways: yes - Use high airways: yes

Route

ENBR AMKAR ENAL

ID Type Via Altitude (ft/m) Position (lat/lon) Dist (leg/tot) Name
O ENBR APT - 0 / 0 60.29339 / 5.21814 - / 0 nm Bergen Lufthavn Flesland
AMKAR FIX - 7,400 / 2,256 62.00000 / 5.82556 103 / 103 nm
O ENAL APT - 0 / 0 62.56037 / 6.11016 34 / 138 nm Alesund lufthavn - Vigra

Altitude Profile

Advertisement - Login to hide

ENBR

Details ICAO ENBR (BGO)
Name Bergen Lufthavn Flesland
Region Norway
Timezone Europe/Oslo (UTC+2.0)
Stats Elevation 166 ft / 51 m (AMSL)
Location 60.293400° 5.218140°
Runways 1
Magnetic Variation 0.962° E

METAR

ENBR 181620Z 23012KT 9999 VCSH FEW015 SCT020CB BKN040 14/11 Q1006 TEMPO SHRA RMK WIND 1200FT 25026G38KT

Decode

TAF

TAF ENBR 181100Z 1812/1912 20015KT 9999 -SHRA FEW010 FEW020TCU BKN035 TEMPO 1812/1821 22015G25KT SHRA BKN020CB BECMG 1818/1821 26008KT PROB30 TEMPO 1821/1906 4000 DZRA BKN012

Decode

Departure Runways

ID Width Length Bearing (true/mag) Surface Threshold Overrun Markings Lighting
17 148 ft / 45 m 9,791 ft / 2,984 m 170.53° / 169.57° ASPHALT 876 ft / 267 m 0 ft / 0 m PREC-APP CENTERLINE EDGE THRESHOLD MALSF
35 148 ft / 45 m 9,791 ft / 2,984 m 350.53° / 349.57° ASPHALT 889 ft / 271 m 0 ft / 0 m PREC-APP CENTERLINE EDGE THRESHOLD MALSF

ENAL

Details ICAO ENAL (AES)
Name Alesund
Region Norway
Timezone Europe/Oslo (UTC+2.0)
Stats Elevation 67 ft / 20 m (AMSL)
Location 62.560400° 6.109990°
Runways 1
Magnetic Variation 1.292° E

METAR

ENAL 181620Z 21020KT 9999 RA FEW013 SCT034 BKN055 14/10 Q0997

Decode

TAF

Not found

Destination Runways

ID Width Length Bearing (true/mag) Surface Threshold Overrun Markings Lighting
07 142 ft / 43 m 7,604 ft / 2,318 m 64.82° / 63.53° ASPHALT 492 ft / 150 m 0 ft / 0 m PREC-APP EDGE THRESHOLD MALSF
25 142 ft / 43 m 7,604 ft / 2,318 m 244.86° / 243.57° ASPHALT 751 ft / 229 m 0 ft / 0 m PREC-APP EDGE THRESHOLD MALSF

Approach Navaids

Runway Type Ident Frequency Range Bearing (true/mag) Slope Elevation
25 LOC-ILS VGR 111.95 MHz 18 nm / 33 km 244.61° / 243.32 ° - 72 ft / 22 m (AMSL)
25 GS VGR 111.95 MHz 10 nm / 19 km 245.22° / 243.93 ° 3.00° 18 ft / 5 m (AMSL)

Popular Alternatives